sensor_id;sensor_type;location;lat;lon;timestamp;pressure;altitude;pressure_sealevel;temperature;humidity
57668;BME280;43499;52.366;12.912;2023-05-03T00:00:38;102394.19;;;7.61;57.86
57668;BME280;43499;52.366;12.912;2023-05-03T00:01:40;102386.72;;;7.56;57.94
57668;BME280;43499;52.366;12.912;2023-05-03T00:02:43;102384.09;;;7.49;57.98
57668;BME280;43499;52.366;12.912;2023-05-03T00:03:44;102388.78;;;7.52;58.58
57668;BME280;43499;52.366;12.912;2023-05-03T00:04:45;102384.84;;;7.48;57.92
57668;BME280;43499;52.366;12.912;2023-05-03T00:05:48;102374.78;;;7.44;58.25
57668;BME280;43499;52.366;12.912;2023-05-03T00:06:49;102385.22;;;7.51;58.38
57668;BME280;43499;52.366;12.912;2023-05-03T00:07:50;102387.66;;;7.50;58.70
57668;BME280;43499;52.366;12.912;2023-05-03T00:08:51;102381.69;;;7.44;58.60
57668;BME280;43499;52.366;12.912;2023-05-03T00:09:52;102388.25;;;7.47;58.85
57668;BME280;43499;52.366;12.912;2023-05-03T00:10:58;102379.63;;;7.41;58.67
57668;BME280;43499;52.366;12.912;2023-05-03T00:11:59;102370.69;;;7.32;58.57
57668;BME280;43499;52.366;12.912;2023-05-03T00:13:01;102379.84;;;7.35;59.15
57668;BME280;43499;52.366;12.912;2023-05-03T00:14:02;102368.66;;;7.29;59.05
57668;BME280;43499;52.366;12.912;2023-05-03T00:15:03;102389.19;;;7.40;58.81
57668;BME280;43499;52.366;12.912;2023-05-03T00:16:05;102375.94;;;7.32;58.98
57668;BME280;43499;52.366;12.912;2023-05-03T00:17:06;102376.50;;;7.29;59.08
57668;BME280;43499;52.366;12.912;2023-05-03T00:18:07;102384.69;;;7.32;59.13
57668;BME280;43499;52.366;12.912;2023-05-03T00:19:08;102389.03;;;7.24;59.16
57668;BME280;43499;52.366;12.912;2023-05-03T00:20:11;102388.44;;;7.27;59.27
57668;BME280;43499;52.366;12.912;2023-05-03T00:21:12;102385.81;;;7.20;59.31
57668;BME280;43499;52.366;12.912;2023-05-03T00:22:13;102392.00;;;7.20;59.72
57668;BME280;43499;52.366;12.912;2023-05-03T00:23:14;102395.34;;;7.19;59.91
57668;BME280;43499;52.366;12.912;2023-05-03T00:24:15;102388.81;;;7.16;59.91
57668;BME280;43499;52.366;12.912;2023-05-03T00:25:17;102390.34;;;7.06;60.42
57668;BME280;43499;52.366;12.912;2023-05-03T00:26:19;102370.13;;;6.98;60.36
57668;BME280;43499;52.366;12.912;2023-05-03T00:27:21;102374.44;;;6.98;60.44
57668;BME280;43499;52.366;12.912;2023-05-03T00:28:24;102393.13;;;7.08;60.47
57668;BME280;43499;52.366;12.912;2023-05-03T00:29:25;102379.69;;;6.98;60.64
57668;BME280;43499;52.366;12.912;2023-05-03T00:30:27;102388.25;;;6.97;60.96
57668;BME280;43499;52.366;12.912;2023-05-03T00:31:28;102389.56;;;6.93;60.81
57668;BME280;43499;52.366;12.912;2023-05-03T00:32:29;102397.03;;;6.97;60.68
57668;BME280;43499;52.366;12.912;2023-05-03T00:33:30;102392.91;;;6.99;60.85
57668;BME280;43499;52.366;12.912;2023-05-03T00:34:31;102380.03;;;6.86;60.89
57668;BME280;43499;52.366;12.912;2023-05-03T00:35:32;102397.19;;;6.91;60.95
57668;BME280;43499;52.366;12.912;2023-05-03T00:36:34;102385.84;;;6.84;61.35
57668;BME280;43499;52.366;12.912;2023-05-03T00:37:35;102389.00;;;6.88;61.32
57668;BME280;43499;52.366;12.912;2023-05-03T00:38:37;102391.81;;;6.83;61.56
57668;BME280;43499;52.366;12.912;2023-05-03T00:39:38;102370.31;;;6.71;61.58
57668;BME280;43499;52.366;12.912;2023-05-03T00:40:40;102388.63;;;6.78;61.39
57668;BME280;43499;52.366;12.912;2023-05-03T00:41:42;102390.47;;;6.79;61.52
57668;BME280;43499;52.366;12.912;2023-05-03T00:42:43;102391.78;;;6.75;62.10
57668;BME280;43499;52.366;12.912;2023-05-03T00:43:47;102391.25;;;6.78;62.35
57668;BME280;43499;52.366;12.912;2023-05-03T00:44:48;102378.72;;;6.68;62.42
57668;BME280;43499;52.366;12.912;2023-05-03T00:45:50;102395.13;;;6.74;62.21
57668;BME280;43499;52.366;12.912;2023-05-03T00:46:51;102365.81;;;6.55;62.08
57668;BME280;43499;52.366;12.912;2023-05-03T00:47:52;102363.56;;;6.51;62.16
57668;BME280;43499;52.366;12.912;2023-05-03T00:48:54;102398.47;;;6.66;62.30
57668;BME280;43499;52.366;12.912;2023-05-03T00:49:55;102395.69;;;6.64;62.84
57668;BME280;43499;52.366;12.912;2023-05-03T00:50:57;102401.44;;;6.62;62.89
57668;BME280;43499;52.366;12.912;2023-05-03T00:51:58;102398.09;;;6.56;63.12
57668;BME280;43499;52.366;12.912;2023-05-03T00:52:59;102388.16;;;6.46;62.94
57668;BME280;43499;52.366;12.912;2023-05-03T00:54:00;102400.88;;;6.50;63.17
57668;BME280;43499;52.366;12.912;2023-05-03T00:55:02;102397.69;;;6.45;63.76
57668;BME280;43499;52.366;12.912;2023-05-03T00:56:03;102396.56;;;6.43;63.85
57668;BME280;43499;52.366;12.912;2023-05-03T00:57:05;102404.00;;;6.40;63.67
57668;BME280;43499;52.366;12.912;2023-05-03T00:58:07;102398.25;;;6.43;63.71
57668;BME280;43499;52.366;12.912;2023-05-03T00:59:08;102398.25;;;6.43;63.58
57668;BME280;43499;52.366;12.912;2023-05-03T01:00:11;102396.19;;;6.40;64.08
57668;BME280;43499;52.366;12.912;2023-05-03T01:01:13;102393.56;;;6.40;63.68
57668;BME280;43499;52.366;12.912;2023-05-03T01:02:15;102396.56;;;6.36;64.01
57668;BME280;43499;52.366;12.912;2023-05-03T01:03:16;102399.50;;;6.32;64.18
57668;BME280;43499;52.366;12.912;2023-05-03T01:04:19;102393.56;;;6.33;64.20
57668;BME280;43499;52.366;12.912;2023-05-03T01:05:21;102395.59;;;6.28;64.35
57668;BME280;43499;52.366;12.912;2023-05-03T01:10:19;102397.63;;;6.24;64.04
57668;BME280;43499;52.366;12.912;2023-05-03T01:11:24;102378.00;;;6.13;64.87
57668;BME280;43499;52.366;12.912;2023-05-03T01:12:49;102398.38;;;6.23;64.88
57668;BME280;43499;52.366;12.912;2023-05-03T01:14:04;102389.56;;;6.15;64.58
57668;BME280;43499;52.366;12.912;2023-05-03T01:15:07;102398.19;;;6.21;64.51
57668;BME280;43499;52.366;12.912;2023-05-03T01:17:27;102400.56;;;6.12;65.32
57668;BME280;43499;52.366;12.912;2023-05-03T01:18:30;102405.22;;;6.08;65.34
57668;BME280;43499;52.366;12.912;2023-05-03T01:19:37;102351.34;;;5.81;65.42
57668;BME280;43499;52.366;12.912;2023-05-03T01:20:43;102393.94;;;5.94;65.23
57668;BME280;43499;52.366;12.912;2023-05-03T01:21:49;102405.16;;;6.00;65.03
57668;BME280;43499;52.366;12.912;2023-05-03T01:24:10;102407.53;;;5.92;66.46
57668;BME280;43499;52.366;12.912;2023-05-03T01:25:14;102387.13;;;5.75;66.28
57668;BME280;43499;52.366;12.912;2023-05-03T01:26:20;102413.44;;;5.83;66.02
57668;BME280;43499;52.366;12.912;2023-05-03T01:27:22;102406.34;;;5.82;66.37
57668;BME280;43499;52.366;12.912;2023-05-03T01:28:23;102413.97;;;5.81;66.29
57668;BME280;43499;52.366;12.912;2023-05-03T01:29:25;102409.84;;;5.76;66.63
57668;BME280;43499;52.366;12.912;2023-05-03T01:30:26;102397.50;;;5.67;66.69
57668;BME280;43499;52.366;12.912;2023-05-03T01:31:59;102409.63;;;5.67;67.36
57668;BME280;43499;52.366;12.912;2023-05-03T01:34:35;102388.09;;;5.55;67.15
57668;BME280;43499;52.366;12.912;2023-05-03T01:35:45;102379.50;;;5.49;66.96
57668;BME280;43499;52.366;12.912;2023-05-03T01:36:48;102405.47;;;5.62;67.34
57668;BME280;43499;52.366;12.912;2023-05-03T01:37:50;102386.59;;;5.50;67.08
57668;BME280;43499;52.366;12.912;2023-05-03T01:38:52;102376.47;;;5.38;67.16
57668;BME280;43499;52.366;12.912;2023-05-03T01:39:58;102411.94;;;5.51;67.02
57668;BME280;43499;52.366;12.912;2023-05-03T01:41:01;102409.13;;;5.49;66.79
57668;BME280;43499;52.366;12.912;2023-05-03T01:42:04;102401.25;;;5.42;67.23
57668;BME280;43499;52.366;12.912;2023-05-03T01:43:07;102390.00;;;5.36;67.98
57668;BME280;43499;52.366;12.912;2023-05-03T01:44:08;102413.00;;;5.46;67.84
57668;BME280;43499;52.366;12.912;2023-05-03T01:45:10;102408.53;;;5.45;68.10
57668;BME280;43499;52.366;12.912;2023-05-03T01:46:12;102382.88;;;5.28;67.87
57668;BME280;43499;52.366;12.912;2023-05-03T01:47:13;102401.94;;;5.34;68.23
57668;BME280;43499;52.366;12.912;2023-05-03T01:48:16;102397.25;;;5.31;67.77
57668;BME280;43499;52.366;12.912;2023-05-03T01:49:18;102403.59;;;5.33;68.28
57668;BME280;43499;52.366;12.912;2023-05-03T01:50:19;102412.00;;;5.38;68.30
57668;BME280;43499;52.366;12.912;2023-05-03T01:51:22;102408.63;;;5.32;68.46
57668;BME280;43499;52.366;12.912;2023-05-03T01:52:24;102413.63;;;5.30;68.69
57668;BME280;43499;52.366;12.912;2023-05-03T01:53:25;102413.44;;;5.29;68.60
57668;BME280;43499;52.366;12.912;2023-05-03T01:54:26;102408.56;;;5.24;68.40
57668;BME280;43499;52.366;12.912;2023-05-03T01:55:28;102386.75;;;5.17;68.84
57668;BME280;43499;52.366;12.912;2023-05-03T01:56:29;102403.00;;;5.29;68.63
57668;BME280;43499;52.366;12.912;2023-05-03T01:57:31;102410.25;;;5.24;68.47
57668;BME280;43499;52.366;12.912;2023-05-03T01:58:32;102410.78;;;5.21;68.97
57668;BME280;43499;52.366;12.912;2023-05-03T01:59:33;102394.34;;;5.15;69.32
57668;BME280;43499;52.366;12.912;2023-05-03T02:00:34;102387.75;;;5.04;68.99
57668;BME280;43499;52.366;12.912;2023-05-03T02:01:35;102404.97;;;5.17;69.30
57668;BME280;43499;52.366;12.912;2023-05-03T02:02:37;102410.72;;;5.14;68.99
57668;BME280;43499;52.366;12.912;2023-05-03T02:03:38;102409.78;;;5.14;69.55
57668;BME280;43499;52.366;12.912;2023-05-03T02:04:39;102391.81;;;5.02;69.57
57668;BME280;43499;52.366;12.912;2023-05-03T02:05:40;102407.50;;;5.09;69.29
57668;BME280;43499;52.366;12.912;2023-05-03T02:06:41;102408.38;;;5.03;69.61
57668;BME280;43499;52.366;12.912;2023-05-03T02:07:42;102409.53;;;5.05;69.89
57668;BME280;43499;52.366;12.912;2023-05-03T02:08:43;102406.00;;;5.04;69.80
57668;BME280;43499;52.366;12.912;2023-05-03T02:09:45;102412.13;;;5.05;69.79
57668;BME280;43499;52.366;12.912;2023-05-03T02:10:46;102389.06;;;4.88;69.58
57668;BME280;43499;52.366;12.912;2023-05-03T02:11:47;102397.50;;;4.92;70.10
57668;BME280;43499;52.366;12.912;2023-05-03T02:12:49;102423.41;;;4.98;69.97
57668;BME280;43499;52.366;12.912;2023-05-03T02:13:50;102394.09;;;4.86;69.96
57668;BME280;43499;52.366;12.912;2023-05-03T02:14:51;102417.28;;;4.98;69.79
57668;BME280;43499;52.366;12.912;2023-05-03T02:15:52;102425.09;;;4.98;69.36
57668;BME280;43499;52.366;12.912;2023-05-03T02:16:54;102403.06;;;4.88;69.84
57668;BME280;43499;52.366;12.912;2023-05-03T02:17:55;102416.34;;;4.97;70.09
57668;BME280;43499;52.366;12.912;2023-05-03T02:18:58;102428.44;;;4.97;69.59
57668;BME280;43499;52.366;12.912;2023-05-03T02:20:00;102423.22;;;4.97;70.30
57668;BME280;43499;52.366;12.912;2023-05-03T02:21:01;102419.28;;;4.93;69.79
57668;BME280;43499;52.366;12.912;2023-05-03T02:22:02;102424.38;;;4.99;69.71
57668;BME280;43499;52.366;12.912;2023-05-03T02:23:03;102387.69;;;4.77;69.27
57668;BME280;43499;52.366;12.912;2023-05-03T02:24:05;102429.38;;;4.97;69.74
57668;BME280;43499;52.366;12.912;2023-05-03T02:25:06;102429.38;;;4.97;70.24
57668;BME280;43499;52.366;12.912;2023-05-03T02:26:07;102431.25;;;4.98;69.58
57668;BME280;43499;52.366;12.912;2023-05-03T02:27:09;102419.66;;;4.96;69.82
57668;BME280;43499;52.366;12.912;2023-05-03T02:28:11;102421.53;;;4.97;70.22
57668;BME280;43499;52.366;12.912;2023-05-03T02:29:12;102427.91;;;4.99;69.45
57668;BME280;43499;52.366;12.912;2023-05-03T02:30:13;102429.38;;;4.97;69.32
57668;BME280;43499;52.366;12.912;2023-05-03T02:31:17;102425.38;;;4.86;70.17
57668;BME280;43499;52.366;12.912;2023-05-03T02:32:18;102424.75;;;4.82;69.74
57668;BME280;43499;52.366;12.912;2023-05-03T02:33:21;102426.00;;;4.78;70.19
57668;BME280;43499;52.366;12.912;2023-05-03T02:34:22;102439.97;;;4.78;69.79
57668;BME280;43499;52.366;12.912;2023-05-03T02:35:25;102429.88;;;4.74;70.17
57668;BME280;43499;52.366;12.912;2023-05-03T02:36:26;102414.13;;;4.60;70.61
57668;BME280;43499;52.366;12.912;2023-05-03T02:37:28;102420.25;;;4.60;70.90
57668;BME280;43499;52.366;12.912;2023-05-03T02:38:30;102419.84;;;4.57;70.99
57668;BME280;43499;52.366;12.912;2023-05-03T02:39:31;102440.78;;;4.65;70.76
57668;BME280;43499;52.366;12.912;2023-05-03T02:40:32;102427.75;;;4.65;70.34
57668;BME280;43499;52.366;12.912;2023-05-03T02:41:34;102428.25;;;4.62;70.64
57668;BME280;43499;52.366;12.912;2023-05-03T02:42:36;102436.94;;;4.55;70.99
57668;BME280;43499;52.366;12.912;2023-05-03T02:43:38;102438.94;;;4.51;71.32
57668;BME280;43499;52.366;12.912;2023-05-03T02:44:39;102407.31;;;4.35;71.25
57668;BME280;43499;52.366;12.912;2023-05-03T02:45:42;102416.81;;;4.34;71.44
57668;BME280;43499;52.366;12.912;2023-05-03T02:46:44;102436.78;;;4.41;71.43
57668;BME280;43499;52.366;12.912;2023-05-03T02:47:45;102442.19;;;4.42;71.66
57668;BME280;43499;52.366;12.912;2023-05-03T02:48:48;102433.56;;;4.36;72.14
57668;BME280;43499;52.366;12.912;2023-05-03T02:49:51;102433.34;;;4.35;71.61
57668;BME280;43499;52.366;12.912;2023-05-03T02:50:52;102442.72;;;4.40;72.11
57668;BME280;43499;52.366;12.912;2023-05-03T02:51:54;102430.97;;;4.36;72.02
57668;BME280;43499;52.366;12.912;2023-05-03T02:52:56;102439.38;;;4.41;72.28
57668;BME280;43499;52.366;12.912;2023-05-03T02:53:58;102443.63;;;4.40;72.01
57668;BME280;43499;52.366;12.912;2023-05-03T02:54:59;102446.97;;;4.39;71.80
57668;BME280;43499;52.366;12.912;2023-05-03T02:56:00;102441.16;;;4.35;71.83
57668;BME280;43499;52.366;12.912;2023-05-03T02:57:02;102420.38;;;4.22;72.52
57668;BME280;43499;52.366;12.912;2023-05-03T02:58:04;102451.03;;;4.37;71.80
57668;BME280;43499;52.366;12.912;2023-05-03T02:59:05;102444.91;;;4.37;72.41
57668;BME280;43499;52.366;12.912;2023-05-03T03:00:06;102449.81;;;4.41;71.71
57668;BME280;43499;52.366;12.912;2023-05-03T03:01:10;102434.41;;;4.29;72.05
57668;BME280;43499;52.366;12.912;2023-05-03T03:02:11;102443.44;;;4.39;71.79
57668;BME280;43499;52.366;12.912;2023-05-03T03:03:12;102444.72;;;4.35;72.28
57668;BME280;43499;52.366;12.912;2023-05-03T03:04:14;102450.66;;;4.34;72.35
57668;BME280;43499;52.366;12.912;2023-05-03T03:05:15;102436.78;;;4.28;72.27
57668;BME280;43499;52.366;12.912;2023-05-03T03:06:22;102441.69;;;4.32;72.14
57668;BME280;43499;52.366;12.912;2023-05-03T03:07:23;102415.41;;;4.10;72.44
57668;BME280;43499;52.366;12.912;2023-05-03T03:08:28;102442.00;;;4.28;72.27
57668;BME280;43499;52.366;12.912;2023-05-03T03:09:33;102445.03;;;4.31;72.28
57668;BME280;43499;52.366;12.912;2023-05-03T03:10:36;102456.78;;;4.35;71.84
57668;BME280;43499;52.366;12.912;2023-05-03T03:11:38;102459.72;;;4.30;72.13
57668;BME280;43499;52.366;12.912;2023-05-03T03:12:39;102455.00;;;4.28;72.59
57668;BME280;43499;52.366;12.912;2023-05-03T03:13:44;102455.25;;;4.29;72.59
57668;BME280;43499;52.366;12.912;2023-05-03T03:14:45;102446.81;;;4.25;72.63
57668;BME280;43499;52.366;12.912;2023-05-03T03:15:46;102459.06;;;4.26;72.62
57668;BME280;43499;52.366;12.912;2023-05-03T03:16:50;102449.19;;;4.23;72.64
57668;BME280;43499;52.366;12.912;2023-05-03T03:17:53;102453.78;;;4.19;73.06
57668;BME280;43499;52.366;12.912;2023-05-03T03:18:57;102456.19;;;4.17;72.83
57668;BME280;43499;52.366;12.912;2023-05-03T03:19:58;102445.38;;;4.14;72.84
57668;BME280;43499;52.366;12.912;2023-05-03T03:21:02;102448.50;;;4.11;73.50
57668;BME280;43499;52.366;12.912;2023-05-03T03:22:04;102448.28;;;4.10;73.77
57668;BME280;43499;52.366;12.912;2023-05-03T03:23:06;102453.81;;;4.06;74.02
57668;BME280;43499;52.366;12.912;2023-05-03T03:24:07;102457.34;;;4.06;73.41
57668;BME280;43499;52.366;12.912;2023-05-03T03:25:09;102436.75;;;3.95;74.03
57668;BME280;43499;52.366;12.912;2023-05-03T03:26:10;102450.38;;;3.99;74.30
57668;BME280;43499;52.366;12.912;2023-05-03T03:27:12;102457.97;;;3.98;74.36
57668;BME280;43499;52.366;12.912;2023-05-03T03:28:13;102455.38;;;3.98;74.01
57668;BME280;43499;52.366;12.912;2023-05-03T03:29:14;102458.16;;;3.99;73.77
57668;BME280;43499;52.366;12.912;2023-05-03T03:30:18;102453.69;;;3.98;74.58
57668;BME280;43499;52.366;12.912;2023-05-03T03:31:30;102457.69;;;4.02;74.12
57668;BME280;43499;52.366;12.912;2023-05-03T03:32:32;102459.03;;;4.06;74.34
57668;BME280;43499;52.366;12.912;2023-05-03T03:33:35;102438.63;;;3.96;74.37
57668;BME280;43499;52.366;12.912;2023-05-03T03:34:44;102460.28;;;4.02;73.93
57668;BME280;43499;52.366;12.912;2023-05-03T03:35:45;102459.84;;;3.99;73.90
57668;BME280;43499;52.366;12.912;2023-05-03T03:36:47;102465.97;;;3.99;73.96
57668;BME280;43499;52.366;12.912;2023-05-03T03:37:48;102459.44;;;3.96;73.84
57668;BME280;43499;52.366;12.912;2023-05-03T03:38:49;102459.97;;;3.93;74.18
57668;BME280;43499;52.366;12.912;2023-05-03T03:39:50;102463.47;;;3.94;74.42
57668;BME280;43499;52.366;12.912;2023-05-03T03:40:52;102468.50;;;3.92;74.04
57668;BME280;43499;52.366;12.912;2023-05-03T03:41:54;102471.28;;;3.94;74.31
57668;BME280;43499;52.366;12.912;2023-05-03T03:42:56;102468.91;;;3.95;74.16
57668;BME280;43499;52.366;12.912;2023-05-03T03:43:57;102445.19;;;3.86;74.48
57668;BME280;43499;52.366;12.912;2023-05-03T03:44:59;102457.88;;;3.91;74.79
57668;BME280;43499;52.366;12.912;2023-05-03T03:46:00;102464.81;;;3.97;74.32
57668;BME280;43499;52.366;12.912;2023-05-03T03:47:01;102459.63;;;3.97;75.09
57668;BME280;43499;52.366;12.912;2023-05-03T03:48:02;102473.59;;;3.98;74.41
57668;BME280;43499;52.366;12.912;2023-05-03T03:49:04;102452.44;;;3.89;74.58
57668;BME280;43499;52.366;12.912;2023-05-03T03:50:05;102453.06;;;3.94;74.74
57668;BME280;43499;52.366;12.912;2023-05-03T03:51:07;102464.72;;;4.03;74.44
57668;BME280;43499;52.366;12.912;2023-05-03T03:52:14;102463.28;;;4.05;74.46
57668;BME280;43499;52.366;12.912;2023-05-03T03:53:16;102465.88;;;4.05;73.97
57668;BME280;43499;52.366;12.912;2023-05-03T03:54:18;102476.28;;;4.05;74.55
57668;BME280;43499;52.366;12.912;2023-05-03T03:55:22;102464.63;;;3.96;74.72
57668;BME280;43499;52.366;12.912;2023-05-03T03:56:26;102475.88;;;4.02;74.58
57668;BME280;43499;52.366;12.912;2023-05-03T03:57:29;102468.28;;;4.04;74.31
57668;BME280;43499;52.366;12.912;2023-05-03T03:58:31;102463.59;;;4.01;74.25
57668;BME280;43499;52.366;12.912;2023-05-03T03:59:33;102477.72;;;4.03;74.20
57668;BME280;43499;52.366;12.912;2023-05-03T04:00:35;102477.44;;;4.07;74.05
57668;BME280;43499;52.366;12.912;2023-05-03T04:01:42;102477.13;;;4.11;74.81
57668;BME280;43499;52.366;12.912;2023-05-03T04:02:45;102482.09;;;4.10;74.70
57668;BME280;43499;52.366;12.912;2023-05-03T04:03:51;102484.31;;;4.07;74.32
57668;BME280;43499;52.366;12.912;2023-05-03T04:04:52;102472.22;;;4.07;74.16
57668;BME280;43499;52.366;12.912;2023-05-03T04:05:53;102467.66;;;3.99;74.70
57668;BME280;43499;52.366;12.912;2023-05-03T04:06:55;102476.91;;;4.10;75.00
57668;BME280;43499;52.366;12.912;2023-05-03T04:07:59;102474.09;;;4.08;74.52
57668;BME280;43499;52.366;12.912;2023-05-03T04:09:03;102475.16;;;4.16;74.52
57668;BME280;43499;52.366;12.912;2023-05-03T04:10:07;102482.22;;;4.17;74.44
57668;BME280;43499;52.366;12.912;2023-05-03T04:11:10;102484.41;;;4.14;74.34
57668;BME280;43499;52.366;12.912;2023-05-03T04:12:20;102453.69;;;3.98;74.04
57668;BME280;43499;52.366;12.912;2023-05-03T04:13:21;102483.97;;;4.11;74.57
57668;BME280;43499;52.366;12.912;2023-05-03T04:14:26;102473.47;;;4.04;74.68
57668;BME280;43499;52.366;12.912;2023-05-03T04:15:28;102487.00;;;4.14;74.96
57668;BME280;43499;52.366;12.912;2023-05-03T04:16:33;102495.00;;;4.15;74.67
57668;BME280;43499;52.366;12.912;2023-05-03T04:17:37;102494.28;;;4.16;74.82
57668;BME280;43499;52.366;12.912;2023-05-03T04:18:41;102498.22;;;4.20;74.07
57668;BME280;43499;52.366;12.912;2023-05-03T04:19:43;102498.22;;;4.20;74.08
57668;BME280;43499;52.366;12.912;2023-05-03T04:20:45;102495.44;;;4.19;74.18
57668;BME280;43499;52.366;12.912;2023-05-03T04:21:46;102501.69;;;4.26;74.77
57668;BME280;43499;52.366;12.912;2023-05-03T04:22:47;102503.75;;;4.29;74.03
57668;BME280;43499;52.366;12.912;2023-05-03T04:23:53;102508.84;;;4.35;74.16
57668;BME280;43499;52.366;12.912;2023-05-03T04:24:54;102498.84;;;4.38;74.44
57668;BME280;43499;52.366;12.912;2023-05-03T04:25:55;102496.56;;;4.46;74.14
57668;BME280;43499;52.366;12.912;2023-05-03T04:26:59;102510.75;;;4.69;73.46
57668;BME280;43499;52.366;12.912;2023-05-03T04:28:04;102506.53;;;4.89;72.55
57668;BME280;43499;52.366;12.912;2023-05-03T04:29:07;102510.63;;;5.07;72.04
57668;BME280;43499;52.366;12.912;2023-05-03T04:30:10;102509.63;;;5.20;71.36
57668;BME280;43499;52.366;12.912;2023-05-03T04:31:13;102514.94;;;5.27;71.53
57668;BME280;43499;52.366;12.912;2023-05-03T04:32:14;102508.50;;;5.38;70.60
57668;BME280;43499;52.366;12.912;2023-05-03T04:33:18;102497.16;;;5.37;70.73
57668;BME280;43499;52.366;12.912;2023-05-03T04:34:19;102504.41;;;5.60;70.54
57668;BME280;43499;52.366;12.912;2023-05-03T04:35:24;102505.19;;;5.66;69.54
57668;BME280;43499;52.366;12.912;2023-05-03T04:36:26;102487.53;;;5.71;69.41
57668;BME280;43499;52.366;12.912;2023-05-03T04:37:29;102510.09;;;5.98;69.31
57668;BME280;43499;52.366;12.912;2023-05-03T04:38:32;102503.28;;;6.06;68.50
57668;BME280;43499;52.366;12.912;2023-05-03T04:39:36;102518.88;;;6.26;67.96
57668;BME280;43499;52.366;12.912;2023-05-03T04:40:38;102513.88;;;6.35;68.35
57668;BME280;43499;52.366;12.912;2023-05-03T04:41:45;102510.03;;;6.45;67.58
57668;BME280;43499;52.366;12.912;2023-05-03T04:42:47;102497.16;;;6.47;66.91
57668;BME280;43499;52.366;12.912;2023-05-03T04:43:49;102488.56;;;6.48;66.68
57668;BME280;43499;52.366;12.912;2023-05-03T04:44:51;102498.75;;;6.67;66.79
57668;BME280;43499;52.366;12.912;2023-05-03T04:45:52;102510.00;;;6.87;65.93
57668;BME280;43499;52.366;12.912;2023-05-03T04:46:57;102518.81;;;7.09;65.67
57668;BME280;43499;52.366;12.912;2023-05-03T04:48:00;102502.59;;;7.12;65.44
57668;BME280;43499;52.366;12.912;2023-05-03T04:49:05;102522.59;;;7.33;64.83
57668;BME280;43499;52.366;12.912;2023-05-03T04:50:07;102516.06;;;7.44;64.37
57668;BME280;43499;52.366;12.912;2023-05-03T04:51:08;102506.53;;;7.52;64.27
57668;BME280;43499;52.366;12.912;2023-05-03T04:52:10;102518.50;;;7.71;63.30
57668;BME280;43499;52.366;12.912;2023-05-03T04:53:11;102505.25;;;7.70;63.09
57668;BME280;43499;52.366;12.912;2023-05-03T04:54:16;102526.53;;;7.80;63.28
57668;BME280;43499;52.366;12.912;2023-05-03T04:55:17;102521.66;;;7.91;62.81
57668;BME280;43499;52.366;12.912;2023-05-03T04:56:19;102518.25;;;8.06;62.21
57668;BME280;43499;52.366;12.912;2023-05-03T04:57:26;102511.31;;;8.14;62.24
57668;BME280;43499;52.366;12.912;2023-05-03T04:58:28;102508.88;;;8.23;61.78
57668;BME280;43499;52.366;12.912;2023-05-03T04:59:29;102524.94;;;8.33;61.61
57668;BME280;43499;52.366;12.912;2023-05-03T05:00:33;102498.34;;;8.30;61.32
57668;BME280;43499;52.366;12.912;2023-05-03T05:01:40;102526.22;;;8.51;60.82
57668;BME280;43499;52.366;12.912;2023-05-03T05:02:43;102516.81;;;8.60;60.90
57668;BME280;43499;52.366;12.912;2023-05-03T05:03:44;102508.38;;;8.63;60.50
57668;BME280;43499;52.366;12.912;2023-05-03T05:04:52;102527.03;;;8.80;60.58
57668;BME280;43499;52.366;12.912;2023-05-03T05:05:55;102516.91;;;8.84;60.17
57668;BME280;43499;52.366;12.912;2023-05-03T05:06:57;102523.06;;;8.84;60.23
57668;BME280;43499;52.366;12.912;2023-05-03T05:08:02;102514.47;;;8.85;59.70
57668;BME280;43499;52.366;12.912;2023-05-03T05:09:20;102509.00;;;8.91;59.83
57668;BME280;43499;52.366;12.912;2023-05-03T05:10:22;102513.63;;;9.01;59.13
57668;BME280;43499;52.366;12.912;2023-05-03T05:11:23;102514.19;;;8.98;59.38
57668;BME280;43499;52.366;12.912;2023-05-03T05:12:25;102500.09;;;9.05;58.58
57668;BME280;43499;52.366;12.912;2023-05-03T05:13:26;102489.38;;;9.10;58.29
57668;BME280;43499;52.366;12.912;2023-05-03T05:14:29;102515.00;;;9.44;58.03
57668;BME280;43499;52.366;12.912;2023-05-03T05:15:30;102514.72;;;9.56;58.31
57668;BME280;43499;52.366;12.912;2023-05-03T05:16:31;102524.81;;;9.61;57.31
57668;BME280;43499;52.366;12.912;2023-05-03T05:17:33;102510.75;;;9.60;57.75
57668;BME280;43499;52.366;12.912;2023-05-03T05:18:35;102520.09;;;9.42;57.78
57668;BME280;43499;52.366;12.912;2023-05-03T05:19:39;102511.38;;;9.50;57.26
57668;BME280;43499;52.366;12.912;2023-05-03T05:20:40;102530.25;;;9.62;57.25
57668;BME280;43499;52.366;12.912;2023-05-03T05:21:42;102519.44;;;9.75;56.95
57668;BME280;43499;52.366;12.912;2023-05-03T05:22:43;102524.97;;;9.85;57.28
57668;BME280;43499;52.366;12.912;2023-05-03T05:23:44;102525.47;;;9.90;56.63
57668;BME280;43499;52.366;12.912;2023-05-03T05:24:46;102498.91;;;9.87;56.57
57668;BME280;43499;52.366;12.912;2023-05-03T05:25:49;102522.22;;;10.16;56.02
57668;BME280;43499;52.366;12.912;2023-05-03T05:26:50;102512.56;;;10.08;55.57
57668;BME280;43499;52.366;12.912;2023-05-03T05:27:52;102508.16;;;10.15;56.07
57668;BME280;43499;52.366;12.912;2023-05-03T05:28:53;102496.22;;;10.26;55.85
57668;BME280;43499;52.366;12.912;2023-05-03T05:29:55;102511.09;;;10.58;54.93
57668;BME280;43499;52.366;12.912;2023-05-03T05:30:56;102532.78;;;10.80;54.38
57668;BME280;43499;52.366;12.912;2023-05-03T05:31:57;102511.13;;;10.83;53.54
57668;BME280;43499;52.366;12.912;2023-05-03T05:32:59;102512.50;;;10.79;54.51
57668;BME280;43499;52.366;12.912;2023-05-03T05:34:00;102497.56;;;10.87;54.25
57668;BME280;43499;52.366;12.912;2023-05-03T05:35:02;102516.78;;;10.94;53.44